createdAt,value
2022-12-17T00:00:50.079Z,5.90
2022-12-17T00:03:38.163Z,5.90
2022-12-17T00:06:26.660Z,5.90
2022-12-17T00:09:15.031Z,5.90
2022-12-17T00:12:02.749Z,5.90
2022-12-17T00:14:50.933Z,5.90
2022-12-17T00:17:38.867Z,6.00
2022-12-17T00:20:27.046Z,5.90
2022-12-17T00:23:19.074Z,6.10
2022-12-17T00:26:08.073Z,5.90
2022-12-17T00:28:56.315Z,5.90
2022-12-17T00:31:44.743Z,6.00
2022-12-17T00:34:33.039Z,6.00
2022-12-17T00:37:21.311Z,6.00
2022-12-17T00:40:09.667Z,6.00
2022-12-17T00:42:58.001Z,6.00
2022-12-17T00:45:46.315Z,6.00
2022-12-17T00:48:35.173Z,6.00
2022-12-17T00:51:22.951Z,6.00
2022-12-17T00:54:11.305Z,6.00
2022-12-17T00:56:59.552Z,6.00
2022-12-17T00:59:48.002Z,6.00
2022-12-17T01:02:36.246Z,6.00
2022-12-17T01:05:25.276Z,6.00
2022-12-17T01:08:13.551Z,6.00
2022-12-17T01:11:02.362Z,6.00
2022-12-17T01:13:50.263Z,6.00
2022-12-17T01:16:38.586Z,6.00
2022-12-17T01:19:27.432Z,6.00
2022-12-17T01:22:15.717Z,5.90
2022-12-17T01:25:03.715Z,5.90
2022-12-17T01:27:51.802Z,5.90
2022-12-17T01:30:40.519Z,5.90
2022-12-17T01:33:28.107Z,5.90
2022-12-17T01:36:15.993Z,5.90
2022-12-17T01:39:04.528Z,5.80
2022-12-17T01:41:52.698Z,5.80
2022-12-17T01:44:51.277Z,5.80
2022-12-17T01:47:40.230Z,5.70
2022-12-17T01:50:28.635Z,5.70
2022-12-17T01:53:18.772Z,5.70
2022-12-17T01:56:07.127Z,5.70
2022-12-17T01:58:56.690Z,5.70
2022-12-17T02:01:45.203Z,5.70
2022-12-17T02:04:33.919Z,5.80
2022-12-17T02:07:25.656Z,5.80
2022-12-17T02:10:29.159Z,5.70
2022-12-17T02:13:23.719Z,5.80
2022-12-17T02:16:16.739Z,5.80
2022-12-17T02:19:07.044Z,5.80
2022-12-17T02:21:54.922Z,5.80
2022-12-17T02:24:58.279Z,5.80
2022-12-17T02:27:46.480Z,5.70
2022-12-17T02:30:34.740Z,5.80
2022-12-17T02:33:23.281Z,5.80
2022-12-17T02:36:14.880Z,5.80
2022-12-17T02:39:02.482Z,5.80
2022-12-17T02:41:54.722Z,5.90
2022-12-17T02:44:43.636Z,5.90
2022-12-17T02:47:32.204Z,5.90
2022-12-17T02:50:20.814Z,5.80
2022-12-17T02:53:09.639Z,5.90
2022-12-17T02:55:57.532Z,5.90
2022-12-17T02:58:47.749Z,5.90
2022-12-17T03:01:36.215Z,5.90
2022-12-17T03:04:25.719Z,5.90
2022-12-17T03:07:13.325Z,5.90
2022-12-17T03:10:03.628Z,5.90
2022-12-17T03:12:54.591Z,5.90
2022-12-17T03:15:42.882Z,5.90
2022-12-17T03:18:30.470Z,5.90
2022-12-17T03:21:18.156Z,5.90
2022-12-17T03:24:06.489Z,5.90
2022-12-17T03:26:54.188Z,5.90
2022-12-17T03:29:42.473Z,5.90
2022-12-17T03:32:30.797Z,5.90
2022-12-17T03:35:19.059Z,6.00
2022-12-17T03:38:06.704Z,5.90
2022-12-17T03:40:54.349Z,6.00
2022-12-17T03:43:42.147Z,6.00
2022-12-17T03:46:29.828Z,6.00
2022-12-17T03:49:18.196Z,6.00
2022-12-17T03:52:06.666Z,5.90
2022-12-17T03:54:54.746Z,6.00
2022-12-17T03:57:42.281Z,6.00
2022-12-17T04:00:30.078Z,6.00
2022-12-17T04:03:18.183Z,6.00
2022-12-17T04:06:06.180Z,6.00
2022-12-17T04:08:53.928Z,6.00
2022-12-17T04:11:42.190Z,6.00
2022-12-17T04:14:30.347Z,6.00
2022-12-17T04:17:18.958Z,6.00
2022-12-17T04:20:07.111Z,6.00
2022-12-17T04:22:55.469Z,6.00
2022-12-17T04:25:42.993Z,6.00
2022-12-17T04:28:30.569Z,6.00
2022-12-17T04:31:18.077Z,6.00
2022-12-17T04:34:06.208Z,6.00
2022-12-17T04:36:54.403Z,6.00
2022-12-17T04:39:42.833Z,6.00
2022-12-17T04:42:31.016Z,6.00
2022-12-17T04:45:19.161Z,5.90
2022-12-17T04:48:06.684Z,5.90
2022-12-17T04:50:54.311Z,5.80
2022-12-17T04:53:42.365Z,5.70
2022-12-17T04:56:30.835Z,5.70
2022-12-17T04:59:19.743Z,5.70
2022-12-17T05:02:08.227Z,5.60
2022-12-17T05:04:56.375Z,5.60
2022-12-17T05:07:44.729Z,5.50
2022-12-17T05:10:32.362Z,5.50
2022-12-17T05:13:20.730Z,5.40
2022-12-17T05:16:11.192Z,5.30
2022-12-17T05:18:59.606Z,5.30
2022-12-17T05:21:47.506Z,5.20
2022-12-17T05:24:35.861Z,5.20
2022-12-17T05:27:24.128Z,5.20
2022-12-17T05:30:11.853Z,5.20
2022-12-17T05:32:59.521Z,5.10
2022-12-17T05:35:47.284Z,5.10
2022-12-17T05:38:35.539Z,5.10
2022-12-17T05:41:23.861Z,5.10
2022-12-17T05:44:11.590Z,5.10
2022-12-17T05:46:59.911Z,5.00
2022-12-17T05:49:47.647Z,5.00
2022-12-17T05:52:35.177Z,5.00
2022-12-17T05:55:22.970Z,4.90
2022-12-17T05:58:19.553Z,4.90
2022-12-17T06:01:16.021Z,4.80
2022-12-17T06:04:04.556Z,4.80
2022-12-17T06:06:52.847Z,4.80
2022-12-17T06:09:41.886Z,4.80
2022-12-17T06:12:30.091Z,4.80
2022-12-17T06:15:18.587Z,4.80
2022-12-17T06:18:16.914Z,4.80
2022-12-17T06:21:08.796Z,4.70
2022-12-17T06:23:56.798Z,4.70
2022-12-17T06:26:44.413Z,4.70
2022-12-17T06:29:32.049Z,4.70
2022-12-17T06:32:19.863Z,4.60
2022-12-17T06:35:08.222Z,4.60
2022-12-17T06:37:55.776Z,4.60
2022-12-17T06:40:43.525Z,4.50
2022-12-17T06:43:31.441Z,4.50
2022-12-17T06:46:19.534Z,4.50
2022-12-17T06:49:07.451Z,4.60
2022-12-17T06:51:55.524Z,4.60
2022-12-17T06:54:43.958Z,4.60
2022-12-17T06:57:34.366Z,4.70
2022-12-17T07:00:26.924Z,4.60
2022-12-17T07:03:15.226Z,4.60
2022-12-17T07:06:03.649Z,4.60
2022-12-17T07:08:51.504Z,4.60
2022-12-17T07:11:40.096Z,4.60
2022-12-17T07:14:28.537Z,4.60
2022-12-17T07:17:16.905Z,4.60
2022-12-17T07:20:05.357Z,4.50
2022-12-17T07:22:53.491Z,4.50
2022-12-17T07:25:45.883Z,4.50
2022-12-17T07:28:34.397Z,4.50
2022-12-17T07:31:22.225Z,4.50
2022-12-17T07:34:10.601Z,4.50
2022-12-17T07:36:58.947Z,4.50
2022-12-17T07:39:47.323Z,4.50
2022-12-17T07:42:35.515Z,4.50
2022-12-17T07:45:24.595Z,4.50
2022-12-17T07:48:12.299Z,4.50
2022-12-17T07:51:03.697Z,4.60
2022-12-17T07:53:52.027Z,4.60
2022-12-17T07:56:41.042Z,4.70
2022-12-17T07:59:29.356Z,4.70
2022-12-17T08:02:17.875Z,4.80
2022-12-17T08:05:06.548Z,4.90
2022-12-17T08:07:54.695Z,4.90
2022-12-17T08:10:42.295Z,5.00
2022-12-17T08:13:29.956Z,5.00
2022-12-17T08:16:17.954Z,5.10
2022-12-17T08:19:05.930Z,5.20
2022-12-17T08:21:53.977Z,5.20
2022-12-17T08:24:41.578Z,5.30
2022-12-17T08:27:30.186Z,5.30
2022-12-17T08:30:17.818Z,5.40
2022-12-17T08:33:05.908Z,5.40
2022-12-17T08:35:54.249Z,5.40
2022-12-17T08:38:42.047Z,5.40
2022-12-17T08:41:30.302Z,5.60
2022-12-17T08:44:18.562Z,5.60
2022-12-17T08:47:06.911Z,5.70
2022-12-17T08:49:54.931Z,5.80
2022-12-17T08:52:42.888Z,5.90
2022-12-17T08:55:31.287Z,5.90
2022-12-17T08:58:19.057Z,5.90
2022-12-17T09:01:07.526Z,5.90
2022-12-17T09:03:55.588Z,5.80
2022-12-17T09:06:43.825Z,5.90
2022-12-17T09:09:32.334Z,6.00
2022-12-17T09:12:20.360Z,6.00
2022-12-17T09:15:08.323Z,6.10
2022-12-17T09:17:56.318Z,6.10
2022-12-17T09:20:44.209Z,6.20
2022-12-17T09:23:33.242Z,6.30
2022-12-17T09:26:21.466Z,6.40
2022-12-17T09:29:09.805Z,6.50
2022-12-17T09:31:57.676Z,6.50
2022-12-17T09:34:47.114Z,6.60
2022-12-17T09:37:36.069Z,6.70
2022-12-17T09:40:26.327Z,6.70
2022-12-17T09:43:18.558Z,6.70
2022-12-17T09:46:14.491Z,6.80
2022-12-17T09:49:02.800Z,6.90
2022-12-17T09:51:51.785Z,6.90
2022-12-17T09:55:00.806Z,6.90
2022-12-17T09:57:52.041Z,7.00
2022-12-17T10:00:42.889Z,7.10
2022-12-17T10:03:34.294Z,7.10
2022-12-17T10:06:24.911Z,7.20
2022-12-17T10:09:15.580Z,7.30
2022-12-17T10:12:03.928Z,7.40
2022-12-17T10:14:51.843Z,7.40
2022-12-17T10:17:40.579Z,7.40
2022-12-17T10:20:44.210Z,7.50
2022-12-17T10:23:40.052Z,7.50
2022-12-17T10:26:32.938Z,7.60
2022-12-17T10:29:26.552Z,7.80
2022-12-17T10:32:16.322Z,7.80
2022-12-17T10:35:05.694Z,7.80
2022-12-17T10:37:53.918Z,7.80
2022-12-17T10:40:43.583Z,7.90
2022-12-17T10:43:39.617Z,7.90
2022-12-17T10:46:28.007Z,7.90
2022-12-17T10:49:31.388Z,7.90
2022-12-17T10:52:21.922Z,7.90
2022-12-17T10:55:12.704Z,8.00
2022-12-17T10:58:01.640Z,8.00
2022-12-17T11:00:51.783Z,8.10
2022-12-17T11:03:41.628Z,8.10
2022-12-17T11:06:31.762Z,8.10
2022-12-17T11:09:26.506Z,8.20
2022-12-17T11:12:16.007Z,8.20
2022-12-17T11:15:06.939Z,8.20
2022-12-17T11:17:56.187Z,8.30
2022-12-17T11:20:50.672Z,8.40
2022-12-17T11:23:39.134Z,8.40
2022-12-17T11:26:31.075Z,8.40
2022-12-17T11:29:20.749Z,8.50
2022-12-17T11:32:10.366Z,8.40
2022-12-17T11:34:59.957Z,8.50
2022-12-17T11:37:52.869Z,8.50
2022-12-17T11:40:48.598Z,8.50
2022-12-17T11:43:46.683Z,8.50
2022-12-17T11:46:50.444Z,8.60
2022-12-17T11:49:47.572Z,8.60
2022-12-17T11:52:47.372Z,8.60
2022-12-17T11:55:39.040Z,8.70
2022-12-17T11:58:35.210Z,8.70
2022-12-17T12:01:24.548Z,8.70
2022-12-17T12:04:19.898Z,8.80
2022-12-17T12:07:16.490Z,8.80
2022-12-17T12:10:08.019Z,8.70
2022-12-17T12:13:10.661Z,8.70
2022-12-17T12:16:05.237Z,8.60
2022-12-17T12:18:53.528Z,8.50
2022-12-17T12:21:52.057Z,8.50
2022-12-17T12:24:55.338Z,8.50
2022-12-17T12:27:55.502Z,8.50
2022-12-17T12:30:49.007Z,8.50
2022-12-17T12:33:38.035Z,8.50
2022-12-17T12:36:27.065Z,8.40
2022-12-17T12:39:15.001Z,8.40
2022-12-17T12:42:03.219Z,8.40
2022-12-17T12:44:51.873Z,8.40
2022-12-17T12:47:56.280Z,8.40
2022-12-17T12:50:49.752Z,8.40
2022-12-17T12:53:38.022Z,8.40
2022-12-17T12:56:41.038Z,8.40
2022-12-17T12:59:40.246Z,8.50
2022-12-17T13:02:30.486Z,8.50
2022-12-17T13:05:19.418Z,8.50
2022-12-17T13:08:02.027Z,8.50
2022-12-17T13:10:35.774Z,8.50
2022-12-17T13:13:17.575Z,8.60
2022-12-17T13:15:53.907Z,8.70
2022-12-17T13:18:26.608Z,8.80
2022-12-17T13:21:02.186Z,8.90
2022-12-17T13:23:37.103Z,9.00
2022-12-17T13:26:24.775Z,8.90
2022-12-17T13:28:58.665Z,8.90
2022-12-17T13:31:42.346Z,8.80
2022-12-17T13:34:19.022Z,8.80
2022-12-17T13:36:59.025Z,8.70
2022-12-17T13:39:31.802Z,8.50
2022-12-17T13:42:04.717Z,8.40
2022-12-17T13:44:42.436Z,8.30
2022-12-17T13:47:24.438Z,8.20
2022-12-17T13:50:32.209Z,8.20
2022-12-17T13:52:50.884Z,8.20
2022-12-17T13:55:26.245Z,8.10
2022-12-17T13:57:59.861Z,8.20
2022-12-17T14:00:32.887Z,8.10
2022-12-17T14:03:11.007Z,8.20
2022-12-17T14:05:44.750Z,8.20
2022-12-17T14:08:18.818Z,8.20
2022-12-17T14:10:52.825Z,8.20
2022-12-17T14:13:25.443Z,8.20
2022-12-17T14:15:58.012Z,8.10
2022-12-17T14:18:30.718Z,8.10
2022-12-17T14:21:03.397Z,8.10
2022-12-17T14:23:36.080Z,8.10
2022-12-17T14:26:09.873Z,8.10
2022-12-17T14:28:50.219Z,8.10
2022-12-17T14:31:27.170Z,8.00
2022-12-17T14:34:02.413Z,8.00
2022-12-17T14:36:36.245Z,8.00
2022-12-17T14:39:24.288Z,8.00
2022-12-17T14:42:13.118Z,8.00
2022-12-17T14:44:50.737Z,7.90
2022-12-17T14:47:33.284Z,7.90
2022-12-17T14:50:09.019Z,7.90
2022-12-17T14:52:42.899Z,7.90
2022-12-17T14:55:31.804Z,7.90
2022-12-17T14:58:08.319Z,7.90
2022-12-17T15:00:42.227Z,7.90
2022-12-17T15:03:18.990Z,7.80
2022-12-17T15:05:53.208Z,7.90
2022-12-17T15:08:25.826Z,7.90
2022-12-17T15:10:58.345Z,7.80
2022-12-17T15:13:30.786Z,7.80
2022-12-17T15:16:03.391Z,7.80
2022-12-17T15:18:36.083Z,7.80
2022-12-17T15:21:10.883Z,7.80
2022-12-17T15:23:44.619Z,7.80
2022-12-17T15:26:17.732Z,7.80
2022-12-17T15:28:50.194Z,7.80
2022-12-17T15:31:25.438Z,7.80
2022-12-17T15:34:00.402Z,7.80
2022-12-17T15:36:33.343Z,7.80
2022-12-17T15:39:07.284Z,7.80
2022-12-17T15:41:55.701Z,7.80
2022-12-17T15:44:28.110Z,7.80
2022-12-17T15:47:00.665Z,7.80
2022-12-17T15:49:33.034Z,7.80
2022-12-17T15:52:05.624Z,7.80
2022-12-17T15:54:40.356Z,7.80
2022-12-17T15:57:18.360Z,7.80
2022-12-17T15:59:51.809Z,7.80
2022-12-17T16:02:24.622Z,7.70
2022-12-17T16:04:57.233Z,7.60
2022-12-17T16:07:29.825Z,7.60
2022-12-17T16:10:05.313Z,7.60
2022-12-17T16:12:38.230Z,7.60
2022-12-17T16:15:12.261Z,7.50
2022-12-17T16:17:44.861Z,7.50
2022-12-17T16:20:17.624Z,7.40
2022-12-17T16:22:50.180Z,7.40
2022-12-17T16:25:22.662Z,7.40
2022-12-17T16:27:55.315Z,7.40
2022-12-17T16:30:27.818Z,7.40
2022-12-17T16:33:00.268Z,7.40
2022-12-17T16:35:32.639Z,7.30
2022-12-17T16:38:05.070Z,7.40
2022-12-17T16:40:37.574Z,7.40
2022-12-17T16:43:10.754Z,7.40
2022-12-17T16:45:50.152Z,7.40
2022-12-17T16:48:22.693Z,7.40
2022-12-17T16:50:55.044Z,7.40
2022-12-17T16:53:27.630Z,7.40
2022-12-17T16:55:59.958Z,7.40
2022-12-17T16:58:32.440Z,7.40
2022-12-17T17:01:04.948Z,7.40
2022-12-17T17:03:42.258Z,7.40
2022-12-17T17:06:16.213Z,7.40
2022-12-17T17:08:48.927Z,7.30
2022-12-17T17:11:22.753Z,7.30
2022-12-17T17:13:55.382Z,7.20
2022-12-17T17:16:28.050Z,7.30
2022-12-17T17:19:00.924Z,7.20
2022-12-17T17:21:34.805Z,7.20
2022-12-17T17:24:11.025Z,7.20
2022-12-17T17:26:45.638Z,7.10
2022-12-17T17:29:18.424Z,7.10
2022-12-17T17:32:09.906Z,7.10
2022-12-17T17:34:43.545Z,7.20
2022-12-17T17:37:16.306Z,7.10
2022-12-17T17:39:49.194Z,7.10
2022-12-17T17:42:21.705Z,7.10
2022-12-17T17:44:54.283Z,7.00
2022-12-17T17:47:26.723Z,7.00
2022-12-17T17:49:59.195Z,6.90
2022-12-17T17:52:31.586Z,6.90
2022-12-17T17:55:04.299Z,6.90
2022-12-17T17:57:36.749Z,6.90
2022-12-17T18:00:09.814Z,6.90
2022-12-17T18:02:42.867Z,6.90
2022-12-17T18:05:16.304Z,6.90
2022-12-17T18:07:48.775Z,6.90
2022-12-17T18:10:21.368Z,6.90
2022-12-17T18:13:08.948Z,6.90
2022-12-17T18:15:42.373Z,6.90
2022-12-17T18:18:15.014Z,6.90
2022-12-17T18:20:47.643Z,6.90
2022-12-17T18:23:20.172Z,6.90
2022-12-17T18:25:52.938Z,7.00
2022-12-17T18:28:25.361Z,7.00
2022-12-17T18:30:57.971Z,7.00
2022-12-17T18:33:30.926Z,7.00
2022-12-17T18:36:09.222Z,7.00
2022-12-17T18:38:42.070Z,7.00
2022-12-17T18:41:32.309Z,7.00
2022-12-17T18:44:06.197Z,7.00
2022-12-17T18:46:38.823Z,7.00
2022-12-17T18:49:12.779Z,7.00
2022-12-17T18:51:46.294Z,7.00
2022-12-17T18:54:20.295Z,7.00
2022-12-17T18:57:02.568Z,7.00
2022-12-17T18:59:38.773Z,7.10
2022-12-17T19:02:12.631Z,7.00
2022-12-17T19:04:45.291Z,7.10
2022-12-17T19:07:18.079Z,7.10
2022-12-17T19:09:50.591Z,7.10
2022-12-17T19:12:23.163Z,7.10
2022-12-17T19:14:55.797Z,7.10
2022-12-17T19:17:28.354Z,7.10
2022-12-17T19:20:00.905Z,7.10
2022-12-17T19:22:33.344Z,7.10
2022-12-17T19:25:07.664Z,7.10
2022-12-17T19:27:40.275Z,7.10
2022-12-17T19:30:12.850Z,7.10
2022-12-17T19:32:46.706Z,7.10
2022-12-17T19:35:19.165Z,7.20
2022-12-17T19:37:53.287Z,7.10
2022-12-17T19:40:25.724Z,7.20
2022-12-17T19:43:01.662Z,7.20
2022-12-17T19:45:34.165Z,7.20
2022-12-17T19:48:06.821Z,7.20
2022-12-17T19:50:39.285Z,7.20
2022-12-17T19:53:11.815Z,7.20
2022-12-17T19:55:45.766Z,7.20
2022-12-17T19:58:18.350Z,7.20
2022-12-17T20:00:51.461Z,7.20
2022-12-17T20:03:24.487Z,7.20
2022-12-17T20:05:56.938Z,7.10
2022-12-17T20:08:29.594Z,7.10
2022-12-17T20:11:03.798Z,7.00
2022-12-17T20:13:36.325Z,7.00
2022-12-17T20:16:08.832Z,7.00
2022-12-17T20:18:42.011Z,7.00
2022-12-17T20:21:14.525Z,6.90
2022-12-17T20:23:47.879Z,6.90
2022-12-17T20:26:20.735Z,6.80
2022-12-17T20:28:55.166Z,6.80
2022-12-17T20:31:27.792Z,6.70
2022-12-17T20:34:00.854Z,6.70
2022-12-17T20:36:33.407Z,6.80
2022-12-17T20:39:05.995Z,6.80
2022-12-17T20:41:40.430Z,6.80
2022-12-17T20:44:15.076Z,6.80
2022-12-17T20:46:47.604Z,6.80
2022-12-17T20:49:20.121Z,6.90
2022-12-17T20:51:52.632Z,6.90
2022-12-17T20:54:26.495Z,6.80
2022-12-17T20:56:58.929Z,6.90
2022-12-17T20:59:31.629Z,6.90
2022-12-17T21:02:04.938Z,6.90
2022-12-17T21:04:37.607Z,6.90
2022-12-17T21:07:10.080Z,6.90
2022-12-17T21:09:42.597Z,6.90
2022-12-17T21:12:15.086Z,6.90
2022-12-17T21:14:47.699Z,6.90
2022-12-17T21:17:20.192Z,6.90
2022-12-17T21:19:53.405Z,6.90
2022-12-17T21:22:26.529Z,6.90
2022-12-17T21:24:59.096Z,6.80
2022-12-17T21:27:31.603Z,6.80
2022-12-17T21:30:07.756Z,6.80
2022-12-17T21:32:46.057Z,6.60
2022-12-17T21:35:18.677Z,6.70
2022-12-17T21:37:51.212Z,6.60
2022-12-17T21:40:23.818Z,6.60
2022-12-17T21:43:04.713Z,6.60
2022-12-17T21:45:38.535Z,6.50
2022-12-17T21:48:15.022Z,6.50
2022-12-17T21:50:48.192Z,6.50
2022-12-17T21:53:21.601Z,6.50
2022-12-17T21:56:02.856Z,6.50
2022-12-17T21:58:35.780Z,6.50
2022-12-17T22:01:25.529Z,6.50
2022-12-17T22:03:59.143Z,6.60
2022-12-17T22:06:35.062Z,6.50
2022-12-17T22:09:40.827Z,6.50
2022-12-17T22:12:23.823Z,6.50
2022-12-17T22:14:56.383Z,6.60
2022-12-17T22:17:29.777Z,6.50
2022-12-17T22:20:02.351Z,6.60
2022-12-17T22:22:35.043Z,6.60
2022-12-17T22:25:10.722Z,6.60
2022-12-17T22:27:43.832Z,6.60
2022-12-17T22:30:32.977Z,6.60
2022-12-17T22:33:13.302Z,6.60
2022-12-17T22:37:55.071Z,6.60
2022-12-17T22:41:47.766Z,6.60
2022-12-17T22:44:46.798Z,6.60
2022-12-17T22:44:56.678Z,6.60
2022-12-17T22:47:31.844Z,6.60
2022-12-17T22:50:04.869Z,6.60
2022-12-17T22:52:38.523Z,6.60
2022-12-17T22:55:11.481Z,6.60
2022-12-17T22:57:44.864Z,6.60
2022-12-17T23:00:20.964Z,6.50
2022-12-17T23:02:54.911Z,6.50
2022-12-17T23:05:28.148Z,6.50
2022-12-17T23:08:00.665Z,6.50
2022-12-17T23:10:33.305Z,6.50
2022-12-17T23:13:05.787Z,6.50
2022-12-17T23:15:39.187Z,6.60
2022-12-17T23:18:12.971Z,6.60
2022-12-17T23:20:45.438Z,6.60
2022-12-17T23:23:17.819Z,6.60
2022-12-17T23:25:50.262Z,6.60
2022-12-17T23:28:22.722Z,6.60
2022-12-17T23:30:55.425Z,6.70
2022-12-17T23:33:29.012Z,6.70
2022-12-17T23:36:11.105Z,6.70
2022-12-17T23:38:44.116Z,6.70
2022-12-17T23:41:17.810Z,6.70
2022-12-17T23:43:50.603Z,6.70
2022-12-17T23:46:24.059Z,6.70
2022-12-17T23:48:56.618Z,6.70
2022-12-17T23:51:29.552Z,6.70
2022-12-17T23:54:02.202Z,6.70
2022-12-17T23:56:35.737Z,6.70
2022-12-17T23:59:08.228Z,6.70
